sensor_id;sensor_type;location;lat;lon;timestamp;pressure;altitude;pressure_sealevel;temperature;humidity
37610;BME280;23457;51.966;8.230;2023-02-21T00:01:39;101177.75;;;9.14;100.00
37610;BME280;23457;51.966;8.230;2023-02-21T00:04:24;101175.44;;;8.93;100.00
37610;BME280;23457;51.966;8.230;2023-02-21T00:07:09;101178.69;;;9.16;100.00
37610;BME280;23457;51.966;8.230;2023-02-21T00:09:55;101173.72;;;8.93;100.00
37610;BME280;23457;51.966;8.230;2023-02-21T00:12:40;101172.97;;;8.97;100.00
37610;BME280;23457;51.966;8.230;2023-02-21T00:15:25;101163.91;;;8.83;100.00
37610;BME280;23457;51.966;8.230;2023-02-21T00:18:11;101172.09;;;8.97;100.00
37610;BME280;23457;51.966;8.230;2023-02-21T00:20:56;101164.06;;;8.89;100.00
37610;BME280;23457;51.966;8.230;2023-02-21T00:23:41;101168.53;;;8.93;100.00
37610;BME280;23457;51.966;8.230;2023-02-21T00:26:26;101180.44;;;9.17;100.00
37610;BME280;23457;51.966;8.230;2023-02-21T00:29:11;101174.91;;;9.05;100.00
37610;BME280;23457;51.966;8.230;2023-02-21T00:31:57;101176.81;;;9.10;100.00
37610;BME280;23457;51.966;8.230;2023-02-21T00:34:42;101175.38;;;8.91;100.00
37610;BME280;23457;51.966;8.230;2023-02-21T00:37:28;101186.34;;;9.11;100.00
37610;BME280;23457;51.966;8.230;2023-02-21T00:40:14;101176.84;;;9.12;100.00
37610;BME280;23457;51.966;8.230;2023-02-21T00:43:00;101185.38;;;8.79;100.00
37610;BME280;23457;51.966;8.230;2023-02-21T00:45:45;101178.22;;;9.01;100.00
37610;BME280;23457;51.966;8.230;2023-02-21T00:48:31;101175.44;;;9.23;100.00
37610;BME280;23457;51.966;8.230;2023-02-21T00:51:16;101163.78;;;9.09;100.00
37610;BME280;23457;51.966;8.230;2023-02-21T00:54:02;101163.50;;;8.98;100.00
37610;BME280;23457;51.966;8.230;2023-02-21T00:56:47;101166.28;;;9.06;100.00
37610;BME280;23457;51.966;8.230;2023-02-21T00:59:32;101164.88;;;9.17;100.00
37610;BME280;23457;51.966;8.230;2023-02-21T01:02:17;101157.69;;;9.07;100.00
37610;BME280;23457;51.966;8.230;2023-02-21T01:05:03;101151.41;;;8.98;100.00
37610;BME280;23457;51.966;8.230;2023-02-21T01:07:49;101154.16;;;9.05;100.00
37610;BME280;23457;51.966;8.230;2023-02-21T01:10:34;101141.53;;;9.17;100.00
37610;BME280;23457;51.966;8.230;2023-02-21T01:13:20;101141.75;;;9.23;100.00
37610;BME280;23457;51.966;8.230;2023-02-21T01:16:06;101142.19;;;9.08;100.00
37610;BME280;23457;51.966;8.230;2023-02-21T01:18:52;101140.75;;;9.19;100.00
37610;BME280;23457;51.966;8.230;2023-02-21T01:21:37;101148.44;;;9.16;100.00
37610;BME280;23457;51.966;8.230;2023-02-21T01:24:22;101144.13;;;9.17;100.00
37610;BME280;23457;51.966;8.230;2023-02-21T01:27:07;101148.00;;;9.31;100.00
37610;BME280;23457;51.966;8.230;2023-02-21T01:29:52;101145.47;;;9.32;100.00
37610;BME280;23457;51.966;8.230;2023-02-21T01:32:38;101146.44;;;9.36;100.00
37610;BME280;23457;51.966;8.230;2023-02-21T01:35:23;101146.09;;;9.25;100.00
37610;BME280;23457;51.966;8.230;2023-02-21T01:38:08;101149.56;;;9.24;100.00
37610;BME280;23457;51.966;8.230;2023-02-21T01:40:53;101156.28;;;9.18;100.00
37610;BME280;23457;51.966;8.230;2023-02-21T01:43:56;101161.09;;;9.06;100.00
37610;BME280;23457;51.966;8.230;2023-02-21T01:46:42;101157.69;;;9.07;100.00
37610;BME280;23457;51.966;8.230;2023-02-21T01:49:27;101162.00;;;9.06;100.00
37610;BME280;23457;51.966;8.230;2023-02-21T01:52:14;101162.13;;;9.11;100.00
37610;BME280;23457;51.966;8.230;2023-02-21T01:54:59;101163.06;;;9.14;100.00
37610;BME280;23457;51.966;8.230;2023-02-21T01:57:45;101156.66;;;9.02;100.00
37610;BME280;23457;51.966;8.230;2023-02-21T02:00:38;101149.75;;;9.02;100.00
37610;BME280;23457;51.966;8.230;2023-02-21T02:03:23;101152.34;;;9.02;100.00
37610;BME280;23457;51.966;8.230;2023-02-21T02:06:11;101154.94;;;9.02;100.00
37610;BME280;23457;51.966;8.230;2023-02-21T02:09:14;101153.28;;;9.04;100.00
37610;BME280;23457;51.966;8.230;2023-02-21T02:20:35;101144.63;;;9.04;100.00
37610;BME280;23457;51.966;8.230;2023-02-21T02:26:05;101140.56;;;9.12;100.00
37610;BME280;23457;51.966;8.230;2023-02-21T02:36:43;101126.72;;;9.13;100.00
37610;BME280;23457;51.966;8.230;2023-02-21T02:39:35;101128.56;;;8.85;100.00
37610;BME280;23457;51.966;8.230;2023-02-21T02:44:59;101137.59;;;8.99;100.00
37610;BME280;23457;51.966;8.230;2023-02-21T02:47:32;101140.22;;;9.01;100.00
37610;BME280;23457;51.966;8.230;2023-02-21T02:50:03;101138.44;;;8.98;100.00
37610;BME280;23457;51.966;8.230;2023-02-21T02:52:31;101145.66;;;9.09;100.00
37610;BME280;23457;51.966;8.230;2023-02-21T02:55:20;101145.34;;;8.99;100.00
37610;BME280;23457;51.966;8.230;2023-02-21T02:57:49;101150.69;;;9.04;100.00
37610;BME280;23457;51.966;8.230;2023-02-21T03:00:18;101149.28;;;9.15;100.00
37610;BME280;23457;51.966;8.230;2023-02-21T03:03:01;101152.50;;;9.38;100.00
37610;BME280;23457;51.966;8.230;2023-02-21T03:08:06;101149.16;;;9.11;100.00
37610;BME280;23457;51.966;8.230;2023-02-21T03:10:57;101148.88;;;9.02;100.00
37610;BME280;23457;51.966;8.230;2023-02-21T03:13:35;101155.13;;;9.08;100.00
37610;BME280;23457;51.966;8.230;2023-02-21T03:16:11;101157.34;;;9.26;100.00
37610;BME280;23457;51.966;8.230;2023-02-21T03:18:45;101157.63;;;9.35;100.00
37610;BME280;23457;51.966;8.230;2023-02-21T03:21:18;101161.81;;;9.30;100.00
37610;BME280;23457;51.966;8.230;2023-02-21T03:23:49;101157.31;;;8.94;100.00
37610;BME280;23457;51.966;8.230;2023-02-21T03:26:17;101169.00;;;9.09;100.00
37610;BME280;23457;51.966;8.230;2023-02-21T03:28:48;101175.00;;;9.08;100.00
37610;BME280;23457;51.966;8.230;2023-02-21T03:31:20;101177.06;;;9.19;100.00
37610;BME280;23457;51.966;8.230;2023-02-21T03:33:49;101175.34;;;9.20;100.00
37610;BME280;23457;51.966;8.230;2023-02-21T03:36:15;101172.91;;;9.24;100.00
37610;BME280;23457;51.966;8.230;2023-02-21T03:38:43;101171.94;;;9.21;100.00
37610;BME280;23457;51.966;8.230;2023-02-21T03:41:10;101180.41;;;9.15;100.00
37610;BME280;23457;51.966;8.230;2023-02-21T03:43:38;101182.88;;;9.11;100.00
37610;BME280;23457;51.966;8.230;2023-02-21T03:46:05;101185.31;;;9.06;100.00
37610;BME280;23457;51.966;8.230;2023-02-21T03:48:33;101177.22;;;9.24;100.00
37610;BME280;23457;51.966;8.230;2023-02-21T03:51:09;101173.88;;;8.99;100.00
37610;BME280;23457;51.966;8.230;2023-02-21T03:53:36;101183.63;;;9.07;100.00
37610;BME280;23457;51.966;8.230;2023-02-21T03:56:05;101184.22;;;9.28;100.00
37610;BME280;23457;51.966;8.230;2023-02-21T03:58:50;101174.91;;;9.34;100.00
37610;BME280;23457;51.966;8.230;2023-02-21T04:01:16;101178.78;;;9.19;100.00
37610;BME280;23457;51.966;8.230;2023-02-21T04:03:43;101182.53;;;8.98;100.00
37610;BME280;23457;51.966;8.230;2023-02-21T04:06:10;101183.63;;;9.07;100.00
37610;BME280;23457;51.966;8.230;2023-02-21T04:08:37;101182.91;;;9.12;100.00
37610;BME280;23457;51.966;8.230;2023-02-21T04:11:04;101187.41;;;9.18;100.00
37610;BME280;23457;51.966;8.230;2023-02-21T04:13:33;101178.59;;;9.13;100.00
37610;BME280;23457;51.966;8.230;2023-02-21T04:16:01;101183.81;;;9.14;100.00
37610;BME280;23457;51.966;8.230;2023-02-21T04:18:28;101191.69;;;9.17;100.00
37610;BME280;23457;51.966;8.230;2023-02-21T04:20:58;101191.44;;;9.08;100.00
37610;BME280;23457;51.966;8.230;2023-02-21T04:23:24;101193.31;;;9.14;100.00
37610;BME280;23457;51.966;8.230;2023-02-21T04:25:51;101190.19;;;9.25;100.00
37610;BME280;23457;51.966;8.230;2023-02-21T04:28:25;101189.94;;;9.16;100.00
37610;BME280;23457;51.966;8.230;2023-02-21T04:30:52;101191.19;;;8.99;100.00
37610;BME280;23457;51.966;8.230;2023-02-21T04:33:19;101194.97;;;9.10;100.00
37610;BME280;23457;51.966;8.230;2023-02-21T04:35:45;101203.50;;;9.36;100.00
37610;BME280;23457;51.966;8.230;2023-02-21T04:38:24;101190.88;;;9.18;100.00
37610;BME280;23457;51.966;8.230;2023-02-21T04:40:51;101194.28;;;9.17;100.00
37610;BME280;23457;51.966;8.230;2023-02-21T04:43:18;101191.91;;;9.23;100.00
37610;BME280;23457;51.966;8.230;2023-02-21T04:45:46;101196.09;;;9.20;100.00
37610;BME280;23457;51.966;8.230;2023-02-21T04:48:13;101187.25;;;9.13;100.00
37610;BME280;23457;51.966;8.230;2023-02-21T04:50:40;101189.31;;;9.25;100.00
37610;BME280;23457;51.966;8.230;2023-02-21T04:53:06;101192.94;;;9.30;100.00
37610;BME280;23457;51.966;8.230;2023-02-21T04:55:33;101194.44;;;9.22;100.00
37610;BME280;23457;51.966;8.230;2023-02-21T04:57:59;101187.78;;;9.02;100.00
37610;BME280;23457;51.966;8.230;2023-02-21T05:00:26;101182.06;;;9.13;100.00
37610;BME280;23457;51.966;8.230;2023-02-21T05:02:53;101173.41;;;9.13;100.00
37610;BME280;23457;51.966;8.230;2023-02-21T05:05:19;101174.38;;;9.16;100.00
37610;BME280;23457;51.966;8.230;2023-02-21T05:07:46;101175.94;;;9.10;100.00
37610;BME280;23457;51.966;8.230;2023-02-21T05:10:14;101175.69;;;9.32;100.00
37610;BME280;23457;51.966;8.230;2023-02-21T05:12:41;101173.34;;;9.10;100.00
37610;BME280;23457;51.966;8.230;2023-02-21T05:15:08;101164.69;;;8.81;100.00
37610;BME280;23457;51.966;8.230;2023-02-21T05:17:36;101166.72;;;8.91;100.00
37610;BME280;23457;51.966;8.230;2023-02-21T05:20:04;101163.66;;;9.04;100.00
37610;BME280;23457;51.966;8.230;2023-02-21T05:22:38;101159.41;;;9.06;100.00
37610;BME280;23457;51.966;8.230;2023-02-21T05:25:17;101162.25;;;8.85;100.00
37610;BME280;23457;51.966;8.230;2023-02-21T05:27:44;101159.91;;;8.66;100.00
37610;BME280;23457;51.966;8.230;2023-02-21T05:30:13;101157.97;;;8.87;100.00
37610;BME280;23457;51.966;8.230;2023-02-21T05:32:44;101157.78;;;8.81;100.00
37610;BME280;23457;51.966;8.230;2023-02-21T05:35:13;101154.28;;;8.79;100.00
37610;BME280;23457;51.966;8.230;2023-02-21T05:37:41;101149.19;;;8.82;100.00
37610;BME280;23457;51.966;8.230;2023-02-21T05:40:10;101146.41;;;8.76;100.00
37610;BME280;23457;51.966;8.230;2023-02-21T05:42:41;101144.13;;;8.87;100.00
37610;BME280;23457;51.966;8.230;2023-02-21T05:45:09;101143.28;;;8.86;100.00
37610;BME280;23457;51.966;8.230;2023-02-21T05:47:36;101147.38;;;8.80;100.00
37610;BME280;23457;51.966;8.230;2023-02-21T05:50:03;101140.06;;;8.67;100.00
37610;BME280;23457;51.966;8.230;2023-02-21T05:52:30;101136.53;;;8.65;100.00
37610;BME280;23457;51.966;8.230;2023-02-21T05:54:57;101137.22;;;8.87;100.00
37610;BME280;23457;51.966;8.230;2023-02-21T05:57:24;101133.22;;;8.69;100.00
37610;BME280;23457;51.966;8.230;2023-02-21T05:59:50;101136.94;;;8.50;100.00
37610;BME280;23457;51.966;8.230;2023-02-21T06:02:17;101139.47;;;8.47;100.00
37610;BME280;23457;51.966;8.230;2023-02-21T06:04:44;101145.38;;;8.43;100.00
37610;BME280;23457;51.966;8.230;2023-02-21T06:07:10;101139.31;;;8.42;100.00
37610;BME280;23457;51.966;8.230;2023-02-21T06:09:37;101134.34;;;8.48;100.00
37610;BME280;23457;51.966;8.230;2023-02-21T06:12:04;101130.59;;;8.67;100.00
37610;BME280;23457;51.966;8.230;2023-02-21T06:14:30;101132.25;;;8.65;100.00
37610;BME280;23457;51.966;8.230;2023-02-21T06:16:59;101132.19;;;8.35;100.00
37610;BME280;23457;51.966;8.230;2023-02-21T06:19:25;101134.19;;;8.44;100.00
37610;BME280;23457;51.966;8.230;2023-02-21T06:21:52;101132.13;;;8.60;100.00
37610;BME280;23457;51.966;8.230;2023-02-21T06:24:19;101128.72;;;8.63;100.00
37610;BME280;23457;51.966;8.230;2023-02-21T06:26:45;101137.69;;;8.74;100.00
37610;BME280;23457;51.966;8.230;2023-02-21T06:29:12;101135.41;;;8.55;100.00
37610;BME280;23457;51.966;8.230;2023-02-21T06:31:38;101135.88;;;8.70;100.00
37610;BME280;23457;51.966;8.230;2023-02-21T06:34:06;101134.63;;;8.87;100.00
37610;BME280;23457;51.966;8.230;2023-02-21T06:36:33;101136.09;;;8.78;100.00
37610;BME280;23457;51.966;8.230;2023-02-21T06:39:01;101130.69;;;8.70;100.00
37610;BME280;23457;51.966;8.230;2023-02-21T06:41:29;101125.03;;;8.55;100.00
37610;BME280;23457;51.966;8.230;2023-02-21T06:43:57;101130.47;;;8.64;100.00
37610;BME280;23457;51.966;8.230;2023-02-21T06:46:27;101138.00;;;8.83;100.00
37610;BME280;23457;51.966;8.230;2023-02-21T06:48:54;101133.84;;;8.60;100.00
37610;BME280;23457;51.966;8.230;2023-02-21T06:51:20;101142.56;;;8.63;100.00
37610;BME280;23457;51.966;8.230;2023-02-21T06:53:55;101140.47;;;8.52;100.00
37610;BME280;23457;51.966;8.230;2023-02-21T06:56:23;101134.28;;;8.75;100.00
37610;BME280;23457;51.966;8.230;2023-02-21T06:58:49;101144.19;;;8.60;100.00
37610;BME280;23457;51.966;8.230;2023-02-21T07:01:16;101143.38;;;8.62;100.00
37610;BME280;23457;51.966;8.230;2023-02-21T07:03:43;101144.00;;;8.82;100.00
37610;BME280;23457;51.966;8.230;2023-02-21T07:06:11;101154.47;;;8.57;100.00
37610;BME280;23457;51.966;8.230;2023-02-21T07:08:38;101150.88;;;8.53;100.00
37610;BME280;23457;51.966;8.230;2023-02-21T07:11:05;101148.34;;;8.83;100.00
37610;BME280;23457;51.966;8.230;2023-02-21T07:13:32;101148.25;;;8.80;100.00
37610;BME280;23457;51.966;8.230;2023-02-21T07:16:01;101151.88;;;8.85;100.00
37610;BME280;23457;51.966;8.230;2023-02-21T07:18:28;101157.31;;;8.94;100.00
37610;BME280;23457;51.966;8.230;2023-02-21T07:20:54;101156.88;;;8.79;100.00
37610;BME280;23457;51.966;8.230;2023-02-21T07:23:21;101159.91;;;8.66;100.00
37610;BME280;23457;51.966;8.230;2023-02-21T07:25:48;101158.97;;;8.64;100.00
37610;BME280;23457;51.966;8.230;2023-02-21T07:28:14;101156.25;;;8.88;100.00
37610;BME280;23457;51.966;8.230;2023-02-21T07:30:41;101164.28;;;8.95;100.00
37610;BME280;23457;51.966;8.230;2023-02-21T07:33:08;101165.41;;;8.77;100.00
37610;BME280;23457;51.966;8.230;2023-02-21T07:35:34;101166.84;;;8.67;100.00
37610;BME280;23457;51.966;8.230;2023-02-21T07:38:01;101166.84;;;8.67;100.00
37610;BME280;23457;51.966;8.230;2023-02-21T07:40:28;101170.72;;;8.53;100.00
37610;BME280;23457;51.966;8.230;2023-02-21T07:42:54;101188.69;;;8.74;100.00
37610;BME280;23457;51.966;8.230;2023-02-21T07:45:21;101174.84;;;8.75;100.00
37610;BME280;23457;51.966;8.230;2023-02-21T07:47:48;101178.97;;;8.68;100.00
37610;BME280;23457;51.966;8.230;2023-02-21T07:50:17;101181.63;;;8.70;100.00
37610;BME280;23457;51.966;8.230;2023-02-21T07:52:44;101182.31;;;8.92;100.00
37610;BME280;23457;51.966;8.230;2023-02-21T07:55:11;101180.50;;;8.90;100.00
37610;BME280;23457;51.966;8.230;2023-02-21T07:57:38;101189.72;;;8.80;100.00
37610;BME280;23457;51.966;8.230;2023-02-21T08:00:05;101179.81;;;8.95;100.00
37610;BME280;23457;51.966;8.230;2023-02-21T08:02:38;101183.06;;;8.88;100.00
37610;BME280;23457;51.966;8.230;2023-02-21T08:05:06;101188.53;;;8.97;100.00
37610;BME280;23457;51.966;8.230;2023-02-21T08:07:33;101189.44;;;8.99;100.00
37610;BME280;23457;51.966;8.230;2023-02-21T08:09:59;101195.28;;;8.92;100.00
37610;BME280;23457;51.966;8.230;2023-02-21T08:12:26;101189.22;;;8.92;100.00
37610;BME280;23457;51.966;8.230;2023-02-21T08:14:52;101198.34;;;8.79;100.00
37610;BME280;23457;51.966;8.230;2023-02-21T08:17:19;101192.66;;;8.64;100.00
37610;BME280;23457;51.966;8.230;2023-02-21T08:19:46;101197.50;;;9.09;100.00
37610;BME280;23457;51.966;8.230;2023-02-21T08:22:12;101195.69;;;9.06;100.00
37610;BME280;23457;51.966;8.230;2023-02-21T08:24:39;101205.84;;;8.98;100.00
37610;BME280;23457;51.966;8.230;2023-02-21T08:27:06;101208.81;;;8.82;100.00
37610;BME280;23457;51.966;8.230;2023-02-21T08:29:32;101199.03;;;8.74;100.00
37610;BME280;23457;51.966;8.230;2023-02-21T08:31:59;101206.91;;;9.05;100.00
37610;BME280;23457;51.966;8.230;2023-02-21T08:34:27;101208.59;;;8.76;100.00
37610;BME280;23457;51.966;8.230;2023-02-21T08:36:55;101214.53;;;8.72;100.00
37610;BME280;23457;51.966;8.230;2023-02-21T08:39:22;101212.13;;;8.78;100.00
37610;BME280;23457;51.966;8.230;2023-02-21T08:41:49;101212.44;;;8.89;100.00
37610;BME280;23457;51.966;8.230;2023-02-21T08:44:18;101213.78;;;8.76;100.00
37610;BME280;23457;51.966;8.230;2023-02-21T08:46:47;101213.00;;;8.79;100.00
37610;BME280;23457;51.966;8.230;2023-02-21T08:49:15;101213.72;;;8.73;100.00
37610;BME280;23457;51.966;8.230;2023-02-21T08:51:42;101215.00;;;8.87;100.00
37610;BME280;23457;51.966;8.230;2023-02-21T08:54:09;101213.88;;;8.79;100.00
37610;BME280;23457;51.966;8.230;2023-02-21T08:56:35;101217.69;;;8.63;100.00
37610;BME280;23457;51.966;8.230;2023-02-21T08:59:02;101213.84;;;8.78;100.00
37610;BME280;23457;51.966;8.230;2023-02-21T09:01:34;101212.63;;;8.67;100.00
37610;BME280;23457;51.966;8.230;2023-02-21T09:04:02;101219.66;;;8.71;100.00
37610;BME280;23457;51.966;8.230;2023-02-21T09:06:29;101224.59;;;8.63;100.00
37610;BME280;23457;51.966;8.230;2023-02-21T09:08:56;101224.41;;;8.84;100.00
37610;BME280;23457;51.966;8.230;2023-02-21T09:11:23;101223.19;;;8.73;100.00
37610;BME280;23457;51.966;8.230;2023-02-21T09:13:50;101226.63;;;8.72;100.00
37610;BME280;23457;51.966;8.230;2023-02-21T09:16:18;101230.09;;;9.01;100.00
37610;BME280;23457;51.966;8.230;2023-02-21T09:18:52;101227.03;;;9.14;100.00
37610;BME280;23457;51.966;8.230;2023-02-21T09:21:19;101226.38;;;8.92;100.00
37610;BME280;23457;51.966;8.230;2023-02-21T09:23:46;101225.78;;;9.01;100.00
37610;BME280;23457;51.966;8.230;2023-02-21T09:26:12;101225.91;;;8.77;100.00
37610;BME280;23457;51.966;8.230;2023-02-21T09:28:39;101228.16;;;8.93;100.00
37610;BME280;23457;51.966;8.230;2023-02-21T09:31:09;101228.38;;;9.01;100.00
37610;BME280;23457;51.966;8.230;2023-02-21T09:33:36;101221.94;;;9.17;100.00
37610;BME280;23457;51.966;8.230;2023-02-21T09:36:10;101223.94;;;8.97;100.00
37610;BME280;23457;51.966;8.230;2023-02-21T09:38:37;101226.44;;;8.94;100.00
37610;BME280;23457;51.966;8.230;2023-02-21T09:41:12;101223.63;;;8.86;100.00
37610;BME280;23457;51.966;8.230;2023-02-21T09:43:44;101219.53;;;8.94;100.00
37610;BME280;23457;51.966;8.230;2023-02-21T09:46:18;101218.97;;;8.76;100.00
37610;BME280;23457;51.966;8.230;2023-02-21T09:48:47;101215.84;;;8.86;100.00
37610;BME280;23457;51.966;8.230;2023-02-21T09:51:16;101220.00;;;9.10;100.00
37610;BME280;23457;51.966;8.230;2023-02-21T09:53:48;101223.78;;;8.92;100.00
37610;BME280;23457;51.966;8.230;2023-02-21T09:59:12;101225.22;;;8.83;100.00
37610;BME280;23457;51.966;8.230;2023-02-21T10:04:37;101218.25;;;9.09;100.00
37610;BME280;23457;51.966;8.230;2023-02-21T10:07:17;101223.91;;;8.95;100.00
37610;BME280;23457;51.966;8.230;2023-02-21T10:10:04;101232.72;;;8.74;100.00
37610;BME280;23457;51.966;8.230;2023-02-21T10:12:55;101234.38;;;9.00;100.00
37610;BME280;23457;51.966;8.230;2023-02-21T10:20:46;101221.09;;;8.89;100.00
37610;BME280;23457;51.966;8.230;2023-02-21T10:23:27;101227.91;;;9.14;100.00
37610;BME280;23457;51.966;8.230;2023-02-21T10:26:02;101222.97;;;9.22;100.00
37610;BME280;23457;51.966;8.230;2023-02-21T10:28:29;101217.41;;;9.10;100.00
37610;BME280;23457;51.966;8.230;2023-02-21T10:30:58;101229.25;;;9.30;100.00
37610;BME280;23457;51.966;8.230;2023-02-21T10:33:26;101222.56;;;9.38;100.00
37610;BME280;23457;51.966;8.230;2023-02-21T10:35:53;101225.13;;;9.37;100.00
37610;BME280;23457;51.966;8.230;2023-02-21T10:38:24;101223.81;;;9.52;100.00
37610;BME280;23457;51.966;8.230;2023-02-21T10:40:56;101226.06;;;9.40;100.00
37610;BME280;23457;51.966;8.230;2023-02-21T10:43:43;101227.75;;;9.38;100.00
37610;BME280;23457;51.966;8.230;2023-02-21T10:46:36;101229.69;;;9.45;100.00
37610;BME280;23457;51.966;8.230;2023-02-21T10:49:20;101221.50;;;9.61;100.00
37610;BME280;23457;51.966;8.230;2023-02-21T10:52:03;101225.72;;;9.28;100.00
37610;BME280;23457;51.966;8.230;2023-02-21T10:54:30;101231.22;;;9.39;100.00
37610;BME280;23457;51.966;8.230;2023-02-21T10:57:01;101227.75;;;9.68;100.00
37610;BME280;23457;51.966;8.230;2023-02-21T10:59:31;101221.22;;;9.52;100.00
37610;BME280;23457;51.966;8.230;2023-02-21T11:02:01;101231.91;;;9.61;100.00
37610;BME280;23457;51.966;8.230;2023-02-21T11:04:31;101224.50;;;9.75;100.00
37610;BME280;23457;51.966;8.230;2023-02-21T11:08:08;101225.59;;;9.53;100.00
37610;BME280;23457;51.966;8.230;2023-02-21T11:10:38;101217.47;;;9.41;100.00
37610;BME280;23457;51.966;8.230;2023-02-21T11:13:20;101215.69;;;9.70;100.00
37610;BME280;23457;51.966;8.230;2023-02-21T11:15:47;101204.41;;;9.38;100.00
37610;BME280;23457;51.966;8.230;2023-02-21T11:18:23;101212.28;;;9.41;100.00
37610;BME280;23457;51.966;8.230;2023-02-21T11:20:52;101218.25;;;9.39;100.00
37610;BME280;23457;51.966;8.230;2023-02-21T11:23:29;101219.56;;;9.54;100.00
37610;BME280;23457;51.966;8.230;2023-02-21T11:26:07;101213.22;;;9.75;100.00
37610;BME280;23457;51.966;8.230;2023-02-21T11:28:42;101217.53;;;9.74;100.00
37610;BME280;23457;51.966;8.230;2023-02-21T11:31:17;101210.94;;;9.55;100.00
37610;BME280;23457;51.966;8.230;2023-02-21T11:34:03;101208.19;;;9.81;100.00
37610;BME280;23457;51.966;8.230;2023-02-21T11:36:42;101205.00;;;9.91;100.00
37610;BME280;23457;51.966;8.230;2023-02-21T11:39:17;101202.25;;;9.85;100.00
37610;BME280;23457;51.966;8.230;2023-02-21T11:41:46;101209.72;;;9.73;100.00
37610;BME280;23457;51.966;8.230;2023-02-21T11:44:40;101200.31;;;9.78;100.00
37610;BME280;23457;51.966;8.230;2023-02-21T11:47:15;101204.19;;;9.60;100.00
37610;BME280;23457;51.966;8.230;2023-02-21T11:52:22;101196.22;;;9.86;100.00
37610;BME280;23457;51.966;8.230;2023-02-21T11:54:50;101202.44;;;9.59;100.00
37610;BME280;23457;51.966;8.230;2023-02-21T11:57:23;101201.28;;;9.81;100.00
37610;BME280;23457;51.966;8.230;2023-02-21T12:24:45;101188.63;;;9.60;100.00
37610;BME280;23457;51.966;8.230;2023-02-21T12:32:43;101177.66;;;10.05;100.00
37610;BME280;23457;51.966;8.230;2023-02-21T12:46:27;101178.53;;;9.71;100.00
37610;BME280;23457;51.966;8.230;2023-02-21T12:49:05;101175.63;;;9.93;100.00
37610;BME280;23457;51.966;8.230;2023-02-21T12:51:45;101164.94;;;9.81;100.00
37610;BME280;23457;51.966;8.230;2023-02-21T12:54:21;101171.13;;;9.86;100.00
37610;BME280;23457;51.966;8.230;2023-02-21T12:57:03;101174.94;;;9.67;100.00
37610;BME280;23457;51.966;8.230;2023-02-21T13:02:44;101171.34;;;9.31;100.00
37610;BME280;23457;51.966;8.230;2023-02-21T13:05:30;101165.22;;;9.29;100.00
37610;BME280;23457;51.966;8.230;2023-02-21T13:08:27;101168.75;;;9.31;100.00
37610;BME280;23457;51.966;8.230;2023-02-21T13:10:57;101165.34;;;9.65;100.00
37610;BME280;23457;51.966;8.230;2023-02-21T13:13:29;101163.97;;;9.15;100.00
37610;BME280;23457;51.966;8.230;2023-02-21T13:16:02;101164.97;;;9.20;100.00
37610;BME280;23457;51.966;8.230;2023-02-21T13:18:38;101157.16;;;9.48;100.00
37610;BME280;23457;51.966;8.230;2023-02-21T13:21:40;101153.78;;;9.52;100.00
37610;BME280;23457;51.966;8.230;2023-02-21T13:30:27;101149.91;;;9.07;100.00
37610;BME280;23457;51.966;8.230;2023-02-21T13:33:02;101156.94;;;9.11;100.00
37610;BME280;23457;51.966;8.230;2023-02-21T13:35:37;101143.56;;;9.27;100.00
37610;BME280;23457;51.966;8.230;2023-02-21T13:38:06;101143.59;;;9.28;100.00
37610;BME280;23457;51.966;8.230;2023-02-21T13:40:37;101135.47;;;9.46;100.00
37610;BME280;23457;51.966;8.230;2023-02-21T13:43:15;101137.59;;;9.61;100.00
37610;BME280;23457;51.966;8.230;2023-02-21T13:45:44;101125.63;;;9.67;100.00
37610;BME280;23457;51.966;8.230;2023-02-21T13:48:24;101135.31;;;9.42;100.00
37610;BME280;23457;51.966;8.230;2023-02-21T13:50:59;101126.66;;;9.73;100.00
37610;BME280;23457;51.966;8.230;2023-02-21T13:53:32;101124.28;;;9.82;100.00
37610;BME280;23457;51.966;8.230;2023-02-21T13:56:17;101130.00;;;9.68;100.00
37610;BME280;23457;51.966;8.230;2023-02-21T13:58:47;101132.78;;;9.76;100.00
37610;BME280;23457;51.966;8.230;2023-02-21T14:01:20;101126.69;;;9.76;100.00
37610;BME280;23457;51.966;8.230;2023-02-21T14:03:55;101125.50;;;9.61;100.00
37610;BME280;23457;51.966;8.230;2023-02-21T14:06:35;101128.88;;;9.59;100.00
37610;BME280;23457;51.966;8.230;2023-02-21T14:09:08;101126.47;;;9.66;100.00
37610;BME280;23457;51.966;8.230;2023-02-21T14:11:43;101129.91;;;9.65;100.00
37610;BME280;23457;51.966;8.230;2023-02-21T14:14:23;101126.69;;;9.76;100.00
37610;BME280;23457;51.966;8.230;2023-02-21T14:16:58;101124.72;;;9.65;100.00
37610;BME280;23457;51.966;8.230;2023-02-21T14:19:36;101121.69;;;9.82;100.00
37610;BME280;23457;51.966;8.230;2023-02-21T14:22:23;101119.47;;;9.97;100.00
37610;BME280;23457;51.966;8.230;2023-02-21T14:24:51;101119.38;;;9.59;100.00
37610;BME280;23457;51.966;8.230;2023-02-21T14:27:31;101122.75;;;9.90;100.00
37610;BME280;23457;51.966;8.230;2023-02-21T14:32:44;101125.56;;;9.64;100.00
37610;BME280;23457;51.966;8.230;2023-02-21T14:38:37;101116.19;;;9.69;100.00
37610;BME280;23457;51.966;8.230;2023-02-21T14:40:45;101117.31;;;9.46;100.00
37610;BME280;23457;51.966;8.230;2023-02-21T14:49:20;101106.94;;;9.81;100.00
37610;BME280;23457;51.966;8.230;2023-02-21T14:54:59;101109.09;;;9.62;100.00
37610;BME280;23457;51.966;8.230;2023-02-21T15:03:31;101109.94;;;9.61;100.00
37610;BME280;23457;51.966;8.230;2023-02-21T15:06:08;101107.13;;;9.87;100.00
37610;BME280;23457;51.966;8.230;2023-02-21T15:08:45;101107.75;;;9.78;100.00
37610;BME280;23457;51.966;8.230;2023-02-21T15:11:33;101112.00;;;9.75;100.00
37610;BME280;23457;51.966;8.230;2023-02-21T15:14:24;101101.25;;;9.61;100.00